Time;durP1;ratioP1;P1;durP2;ratioP2;P2;SDS_P1;SDS_P2;PMS_P1;PMS_P2;Temp;Humidity;BMP_temperature;BMP_pressure;BME280_temperature;BME280_humidity;BME280_pressure;Samples;Min_cycle;Max_cycle;Signal;HPM_P1;HPM_P2
2020/12/05 00:01:51;;;;;;;;;;;23.20;50.10;;;;;;5043558;28;20360;-71
2020/12/05 00:04:17;;;;;;;;;;;23.20;50.10;;;;;;5037239;28;19909;-73
2020/12/05 00:06:43;;;;;;;;;;;23.20;50.20;;;;;;5037189;28;20016;-72
2020/12/05 00:09:10;;;;;;;;;;;23.20;50.20;;;;;;5037081;28;20470;-72
2020/12/05 00:11:36;;;;;;;;;;;23.20;50.20;;;;;;5043896;28;19909;-69
2020/12/05 00:14:03;;;;;;;;;;;23.20;50.20;;;;;;5042746;28;19920;-72
2020/12/05 00:16:29;;;;;;;;;;;23.20;50.30;;;;;;5037032;28;19909;-71
2020/12/05 00:18:55;;;;;;;;;;;23.20;50.90;;;;;;5037071;28;20007;-75
2020/12/05 00:21:22;;;;;;;;;;;23.10;50.20;;;;;;5034567;28;19913;-68
2020/12/05 00:23:48;;;;;;;;;;;23.10;50.20;;;;;;5035805;28;19916;-70
2020/12/05 00:26:18;;;;;;;;;;;23.10;50.30;;;;;;5035809;28;19921;-69
2020/12/05 00:28:45;;;;;;;;;;;23.10;50.30;;;;;;5039571;28;19909;-71
2020/12/05 00:31:20;;;;;;;;;;;23.10;50.30;;;;;;5036212;28;19913;-75
2020/12/05 00:33:46;;;;;;;;;;;23.10;50.30;;;;;;5069452;28;20280;-74
2020/12/05 00:36:16;;;;;;;;;;;23.10;50.30;;;;;;5038878;28;20055;-74
2020/12/05 00:38:42;;;;;;;;;;;23.10;50.40;;;;;;5036358;28;19927;-68
2020/12/05 00:41:08;;;;;;;;;;;23.00;50.30;;;;;;5038905;28;19919;-74
2020/12/05 00:43:34;;;;;;;;;;;23.00;50.30;;;;;;5037596;28;19925;-75
2020/12/05 00:46:02;;;;;;;;;;;23.00;50.30;;;;;;5040043;28;19921;-68
2020/12/05 00:48:28;;;;;;;;;;;23.00;50.30;;;;;;5074754;28;19909;-66
2020/12/05 00:50:57;;;;;;;;;;;23.00;50.30;;;;;;5034503;28;20786;-68
2020/12/05 00:53:27;;;;;;;;;;;23.00;50.20;;;;;;5038965;28;19913;-70
2020/12/05 00:56:13;;;;;;;;;;;23.00;50.30;;;;;;5038816;28;19941;-68
2020/12/05 00:58:39;;;;;;;;;;;23.00;50.20;;;;;;5043136;28;20374;-66
2020/12/05 01:01:25;;;;;;;;;;;22.90;50.20;;;;;;5040476;28;19967;-71
2020/12/05 01:04:11;;;;;;;;;;;22.90;50.20;;;;;;5038503;28;19913;-69
2020/12/05 01:06:56;;;;;;;;;;;22.90;50.30;;;;;;5039704;28;19960;-66
2020/12/05 01:09:22;;;;;;;;;;;22.90;50.30;;;;;;5037989;28;19967;-71
2020/12/05 01:11:49;;;;;;;;;;;22.90;50.40;;;;;;5038274;28;19971;-67
2020/12/05 01:14:15;;;;;;;;;;;22.90;50.50;;;;;;5042585;28;19974;-71
2020/12/05 01:16:45;;;;;;;;;;;22.90;50.50;;;;;;5041652;28;19920;-65
2020/12/05 01:19:31;;;;;;;;;;;22.90;50.60;;;;;;5033479;28;19971;-71
2020/12/05 01:21:57;;;;;;;;;;;22.90;50.70;;;;;;5031828;28;19913;-67
2020/12/05 01:24:23;;;;;;;;;;;22.80;50.70;;;;;;5040498;28;19913;-72
2020/12/05 01:26:50;;;;;;;;;;;22.80;50.80;;;;;;5037557;28;19927;-70
2020/12/05 01:29:16;;;;;;;;;;;22.80;50.80;;;;;;5040391;28;19913;-71
2020/12/05 01:31:46;;;;;;;;;;;22.80;50.90;;;;;;5033907;28;19914;-71
2020/12/05 01:34:12;;;;;;;;;;;22.80;50.90;;;;;;5042605;28;20316;-71
2020/12/05 01:36:42;;;;;;;;;;;22.70;50.90;;;;;;5036123;28;20000;-71
2020/12/05 01:39:08;;;;;;;;;;;22.70;51.00;;;;;;5036554;28;19913;-75
2020/12/05 01:41:34;;;;;;;;;;;22.70;51.00;;;;;;5041820;28;20335;-72
2020/12/05 01:44:01;;;;;;;;;;;22.70;51.10;;;;;;5035492;28;19932;-74
2020/12/05 01:46:32;;;;;;;;;;;22.70;51.10;;;;;;5032599;28;20008;-74
2020/12/05 01:48:58;;;;;;;;;;;22.70;51.20;;;;;;5034284;28;19963;-74
2020/12/05 01:51:25;;;;;;;;;;;22.70;51.20;;;;;;5035738;28;19959;-72
2020/12/05 01:53:51;;;;;;;;;;;22.70;51.80;;;;;;5038679;28;20246;-67
2020/12/05 01:56:17;;;;;;;;;;;22.70;51.30;;;;;;5038220;28;19913;-67
2020/12/05 01:58:46;;;;;;;;;;;22.70;51.30;;;;;;5040281;28;19909;-70
2020/12/05 02:01:13;;;;;;;;;;;22.60;51.20;;;;;;5033157;28;19943;-68
2020/12/05 02:03:40;;;;;;;;;;;22.60;51.20;;;;;;5035941;28;19913;-67
2020/12/05 02:06:38;;;;;;;;;;;22.60;51.20;;;;;;5039139;28;19920;-73
2020/12/05 02:09:24;;;;;;;;;;;22.60;51.30;;;;;;5029674;28;19913;-75
2020/12/05 02:11:58;;;;;;;;;;;22.60;51.30;;;;;;5043065;28;19924;-70
2020/12/05 02:14:26;;;;;;;;;;;22.60;51.30;;;;;;5046252;28;19920;-66
2020/12/05 02:16:52;;;;;;;;;;;22.60;51.40;;;;;;5040654;28;19909;-65
2020/12/05 02:19:21;;;;;;;;;;;22.50;51.30;;;;;;5044450;28;20375;-68
2020/12/05 02:21:50;;;;;;;;;;;22.50;51.30;;;;;;5041427;28;19920;-74
2020/12/05 02:24:16;;;;;;;;;;;22.50;51.30;;;;;;5037874;28;19917;-68
2020/12/05 02:26:44;;;;;;;;;;;22.50;51.30;;;;;;5040800;28;19917;-66
2020/12/05 02:29:10;;;;;;;;;;;22.50;51.30;;;;;;5037092;28;19917;-66
2020/12/05 02:31:37;;;;;;;;;;;22.50;51.30;;;;;;5037550;28;19944;-69
2020/12/05 02:34:04;;;;;;;;;;;22.50;51.30;;;;;;5041543;28;19914;-71
2020/12/05 02:36:32;;;;;;;;;;;22.40;51.30;;;;;;5044015;28;19948;-72
2020/12/05 02:39:03;;;;;;;;;;;22.40;51.30;;;;;;5043004;28;19992;-71
2020/12/05 02:41:29;;;;;;;;;;;22.40;51.30;;;;;;5038673;28;19909;-75
2020/12/05 02:43:55;;;;;;;;;;;22.40;51.40;;;;;;5036860;28;19927;-71
2020/12/05 02:46:21;;;;;;;;;;;22.40;51.40;;;;;;5038903;28;19921;-68
2020/12/05 02:48:47;;;;;;;;;;;22.40;51.50;;;;;;5042536;28;19913;-69
2020/12/05 02:51:14;;;;;;;;;;;22.40;51.50;;;;;;5047725;28;19916;-73
2020/12/05 02:53:40;;;;;;;;;;;22.40;51.60;;;;;;5046555;28;19908;-74
2020/12/05 02:56:06;;;;;;;;;;;22.30;51.60;;;;;;5046730;28;19966;-73
2020/12/05 02:58:32;;;;;;;;;;;22.30;51.60;;;;;;5048095;28;19913;-70
2020/12/05 03:00:58;;;;;;;;;;;22.30;51.70;;;;;;5043932;28;19920;-75
2020/12/05 03:03:24;;;;;;;;;;;22.30;51.70;;;;;;5039598;28;19913;-76
2020/12/05 03:05:50;;;;;;;;;;;22.30;51.70;;;;;;5043605;28;19982;-74
2020/12/05 03:08:16;;;;;;;;;;;22.30;51.80;;;;;;5036803;28;19912;-75
2020/12/05 03:10:42;;;;;;;;;;;22.30;51.90;;;;;;5040235;28;20441;-74
2020/12/05 03:13:08;;;;;;;;;;;22.30;52.00;;;;;;5034181;28;19909;-74
2020/12/05 03:15:34;;;;;;;;;;;22.20;52.00;;;;;;5046163;28;19998;-75
2020/12/05 03:18:00;;;;;;;;;;;22.30;52.10;;;;;;5037909;28;19976;-73
2020/12/05 03:20:27;;;;;;;;;;;22.30;52.20;;;;;;5036566;28;19914;-74
2020/12/05 03:22:53;;;;;;;;;;;22.20;52.20;;;;;;5041358;28;20368;-72
2020/12/05 03:25:19;;;;;;;;;;;22.20;52.20;;;;;;5038672;28;19917;-75
2020/12/05 03:27:45;;;;;;;;;;;22.20;52.30;;;;;;5041213;28;19966;-74
2020/12/05 03:30:11;;;;;;;;;;;22.20;52.40;;;;;;5040392;28;20341;-75
2020/12/05 03:32:37;;;;;;;;;;;22.20;52.50;;;;;;5039050;28;19909;-71
2020/12/05 03:35:03;;;;;;;;;;;22.20;52.60;;;;;;5036573;28;19913;-75
2020/12/05 03:37:29;;;;;;;;;;;22.20;52.70;;;;;;5043567;28;19960;-73
2020/12/05 03:39:55;;;;;;;;;;;22.10;52.70;;;;;;5042094;28;19917;-74
2020/12/05 03:42:21;;;;;;;;;;;22.20;52.80;;;;;;5040095;28;19991;-75
2020/12/05 03:44:47;;;;;;;;;;;22.10;52.70;;;;;;5039178;28;19916;-73
2020/12/05 03:47:14;;;;;;;;;;;22.20;52.90;;;;;;5041844;28;19917;-75
2020/12/05 03:49:40;;;;;;;;;;;22.20;53.00;;;;;;5033187;28;20380;-74
2020/12/05 03:52:06;;;;;;;;;;;22.10;53.10;;;;;;5036892;28;19913;-73
2020/12/05 03:54:32;;;;;;;;;;;22.10;53.20;;;;;;5044432;28;19931;-75
2020/12/05 03:56:58;;;;;;;;;;;22.10;53.30;;;;;;5040309;28;20418;-75
2020/12/05 03:59:24;;;;;;;;;;;22.10;53.40;;;;;;5036071;28;19944;-73
2020/12/05 04:01:50;;;;;;;;;;;22.10;53.50;;;;;;5036359;28;19964;-73
2020/12/05 04:04:17;;;;;;;;;;;22.10;53.60;;;;;;5037295;28;20449;-75
2020/12/05 04:06:43;;;;;;;;;;;22.10;53.70;;;;;;5040596;28;19979;-77
2020/12/05 04:09:09;;;;;;;;;;;22.10;53.70;;;;;;5038722;28;19909;-76
2020/12/05 04:11:38;;;;;;;;;;;22.10;53.80;;;;;;5046093;28;20055;-74
2020/12/05 04:14:07;;;;;;;;;;;22.10;54.00;;;;;;5036155;28;19920;-74
2020/12/05 04:16:34;;;;;;;;;;;22.10;54.00;;;;;;5034806;28;19917;-75
2020/12/05 04:19:00;;;;;;;;;;;22.10;54.20;;;;;;5037159;28;20620;-68
2020/12/05 04:21:26;;;;;;;;;;;22.10;54.20;;;;;;5039325;28;19909;-67
2020/12/05 04:23:55;;;;;;;;;;;22.10;54.30;;;;;;5038750;28;19939;-70
2020/12/05 04:26:21;;;;;;;;;;;22.00;54.40;;;;;;5035030;28;20033;-70
2020/12/05 04:28:48;;;;;;;;;;;22.00;54.50;;;;;;5041309;28;20026;-75
2020/12/05 04:31:14;;;;;;;;;;;22.10;54.70;;;;;;5041766;28;19913;-73
2020/12/05 04:33:40;;;;;;;;;;;22.00;54.70;;;;;;5042709;28;20372;-78
2020/12/05 04:36:06;;;;;;;;;;;22.10;54.90;;;;;;5045999;28;19920;-74
2020/12/05 04:38:32;;;;;;;;;;;22.10;55.00;;;;;;5040505;28;19909;-73
2020/12/05 04:40:59;;;;;;;;;;;22.00;55.00;;;;;;5035965;28;20348;-75
2020/12/05 04:43:25;;;;;;;;;;;22.00;55.00;;;;;;5044123;28;20012;-75
2020/12/05 04:45:55;;;;;;;;;;;22.00;55.10;;;;;;5043304;28;19913;-73
2020/12/05 04:48:22;;;;;;;;;;;22.00;55.20;;;;;;5045069;28;19913;-76
2020/12/05 04:50:48;;;;;;;;;;;22.10;55.30;;;;;;5033672;28;19916;-74
2020/12/05 04:53:18;;;;;;;;;;;22.10;55.30;;;;;;5032707;28;19916;-77
2020/12/05 04:55:45;;;;;;;;;;;22.10;55.30;;;;;;5043168;28;19909;-76
2020/12/05 04:58:17;;;;;;;;;;;22.10;55.30;;;;;;5043822;28;19920;-75
2020/12/05 05:00:43;;;;;;;;;;;22.10;55.30;;;;;;5035019;28;19919;-76
2020/12/05 05:03:10;;;;;;;;;;;22.10;55.30;;;;;;5036942;28;20702;-74
2020/12/05 05:05:36;;;;;;;;;;;22.10;55.30;;;;;;5033416;28;19920;-77
2020/12/05 05:08:05;;;;;;;;;;;22.10;55.30;;;;;;5041013;28;19917;-75
2020/12/05 05:10:34;;;;;;;;;;;22.10;55.30;;;;;;5039475;28;20338;-76
2020/12/05 05:13:13;;;;;;;;;;;22.20;55.40;;;;;;5033854;28;19921;-76
2020/12/05 05:15:39;;;;;;;;;;;22.20;55.30;;;;;;5041059;28;19913;-76
2020/12/05 05:18:06;;;;;;;;;;;22.30;55.40;;;;;;5036202;28;19917;-75
2020/12/05 05:20:37;;;;;;;;;;;22.20;55.30;;;;;;5038796;28;20288;-76
2020/12/05 05:23:13;;;;;;;;;;;22.20;55.30;;;;;;5036723;28;19959;-76
2020/12/05 05:26:06;;;;;;;;;;;22.30;55.30;;;;;;5044735;28;19909;-75
2020/12/05 05:28:41;;;;;;;;;;;22.30;55.30;;;;;;5043806;28;19959;-73
2020/12/05 05:33:57;;;;;;;;;;;22.30;55.40;;;;;;5041553;28;19919;-73
2020/12/05 05:36:29;;;;;;;;;;;22.40;55.40;;;;;;5036284;28;19917;-67
2020/12/05 05:38:59;;;;;;;;;;;22.40;55.30;;;;;;5042636;28;19916;-72
2020/12/05 05:41:26;;;;;;;;;;;22.40;55.30;;;;;;5044242;28;19920;-73
2020/12/05 05:44:03;;;;;;;;;;;;;;;;;;;;;
2020/12/05 05:47:10;;;;;;;;;;;22.50;55.20;;;;;;5040587;28;19927;-74
2020/12/05 05:50:01;;;;;;;;;;;22.50;55.00;;;;;;5035613;28;19924;-74
2020/12/05 05:52:47;;;;;;;;;;;22.50;54.90;;;;;;5044123;28;19966;-73
2020/12/05 05:55:33;;;;;;;;;;;22.60;54.90;;;;;;5038405;28;20288;-75
2020/12/05 05:58:19;;;;;;;;;;;22.60;54.80;;;;;;5046679;28;19913;-74
2020/12/05 06:01:11;;;;;;;;;;;22.70;54.70;;;;;;5076077;28;19915;-75
2020/12/05 06:03:45;;;;;;;;;;;22.70;54.60;;;;;;5038666;28;19919;-74
2020/12/05 06:06:19;;;;;;;;;;;22.80;54.60;;;;;;5037072;28;19920;-69
2020/12/05 06:08:45;;;;;;;;;;;22.80;54.40;;;;;;5040854;28;19916;-73
2020/12/05 06:11:12;;;;;;;;;;;22.90;54.40;;;;;;5049642;28;19913;-73
2020/12/05 06:13:40;;;;;;;;;;;22.90;54.20;;;;;;5043990;28;19912;-74
2020/12/05 06:16:06;;;;;;;;;;;22.90;54.10;;;;;;5047121;28;19966;-73
2020/12/05 06:18:32;;;;;;;;;;;23.00;54.00;;;;;;5047765;28;19913;-74
2020/12/05 06:20:58;;;;;;;;;;;23.00;53.90;;;;;;5038918;28;19906;-73
2020/12/05 06:23:44;;;;;;;;;;;23.00;53.80;;;;;;5041581;28;19908;-74
2020/12/05 06:26:14;;;;;;;;;;;23.10;53.70;;;;;;5043168;28;19917;-73
2020/12/05 06:28:43;;;;;;;;;;;23.10;53.50;;;;;;5039167;28;19914;-73
2020/12/05 06:31:09;;;;;;;;;;;23.10;53.40;;;;;;5040533;28;19978;-73
2020/12/05 06:33:39;;;;;;;;;;;23.20;53.30;;;;;;5038683;28;20521;-71
2020/12/05 06:36:23;;;;;;;;;;;23.20;53.20;;;;;;5044846;28;19959;-73
2020/12/05 06:39:08;;;;;;;;;;;23.30;53.10;;;;;;5039691;28;20388;-73
2020/12/05 06:41:35;;;;;;;;;;;23.30;52.90;;;;;;5037997;28;19909;-73
2020/12/05 06:44:08;;;;;;;;;;;23.30;52.80;;;;;;5039965;28;20008;-73
2020/12/05 06:46:46;;;;;;;;;;;23.40;52.70;;;;;;5040728;28;19921;-73
2020/12/05 06:49:12;;;;;;;;;;;23.40;52.60;;;;;;5039060;28;19921;-71
2020/12/05 06:51:38;;;;;;;;;;;23.40;52.40;;;;;;5045367;28;20336;-74
2020/12/05 06:54:04;;;;;;;;;;;23.50;52.30;;;;;;5040217;28;19913;-73
2020/12/05 06:56:30;;;;;;;;;;;23.50;52.20;;;;;;5043790;28;19916;-71
2020/12/05 06:58:57;;;;;;;;;;;23.60;52.10;;;;;;5042140;28;19909;-71
2020/12/05 07:01:29;;;;;;;;;;;23.60;51.90;;;;;;5044080;28;19967;-72
2020/12/05 07:03:55;;;;;;;;;;;23.70;51.80;;;;;;5039321;28;19949;-72
2020/12/05 07:06:37;;;;;;;;;;;;;;;;;;;;;
2020/12/05 07:09:03;;;;;;;;;;;23.70;51.50;;;;;;5036421;28;19935;-72
2020/12/05 07:11:29;;;;;;;;;;;23.80;51.30;;;;;;5037792;28;19917;-73
2020/12/05 07:13:56;;;;;;;;;;;23.90;51.20;;;;;;5047127;28;20000;-72
2020/12/05 07:16:22;;;;;;;;;;;23.90;50.80;;;;;;5043676;28;20014;-72
2020/12/05 07:18:55;;;;;;;;;;;24.00;50.60;;;;;;5041825;28;19913;-72
2020/12/05 07:21:22;;;;;;;;;;;24.10;50.10;;;;;;5037369;28;19917;-73
2020/12/05 07:23:49;;;;;;;;;;;24.10;49.60;;;;;;5039235;28;19913;-72
2020/12/05 07:26:15;;;;;;;;;;;24.20;49.40;;;;;;5042213;28;19948;-72
2020/12/05 07:28:48;;;;;;;;;;;24.20;49.20;;;;;;5035993;28;20387;-73
2020/12/05 07:31:34;;;;;;;;;;;24.30;49.10;;;;;;5031303;28;19960;-72
2020/12/05 07:34:20;;;;;;;;;;;24.40;48.80;;;;;;5046552;28;19952;-72
2020/12/05 07:37:06;;;;;;;;;;;24.50;48.50;;;;;;5038026;28;19959;-71
2020/12/05 07:39:52;;;;;;;;;;;24.60;48.10;;;;;;5038553;28;19956;-72
2020/12/05 07:42:37;;;;;;;;;;;24.60;47.80;;;;;;5037335;28;19921;-72
2020/12/05 07:45:23;;;;;;;;;;;24.70;47.70;;;;;;5035523;28;19916;-68
2020/12/05 07:48:09;;;;;;;;;;;24.70;47.60;;;;;;5036045;28;19917;-71
2020/12/05 07:50:55;;;;;;;;;;;24.80;47.50;;;;;;5043694;28;19916;-72
2020/12/05 07:53:41;;;;;;;;;;;24.90;46.80;;;;;;5037188;28;19958;-72
2020/12/05 07:56:13;;;;;;;;;;;25.00;46.30;;;;;;5035322;28;19914;-71
2020/12/05 07:59:03;;;;;;;;;;;25.00;46.40;;;;;;5045713;28;19939;-73
2020/12/05 08:01:48;;;;;;;;;;;25.10;46.70;;;;;;5035038;28;19920;-72
2020/12/05 08:04:32;;;;;;;;;;;25.20;46.70;;;;;;5037582;28;19921;-70
2020/12/05 08:07:05;;;;;;;;;;;25.30;46.50;;;;;;5038678;28;19925;-73
2020/12/05 08:09:54;;;;;;;;;;;25.40;46.50;;;;;;5041508;28;19920;-73
2020/12/05 08:12:39;;;;;;;;;;;25.40;46.30;;;;;;5032129;28;19978;-73
2020/12/05 08:15:25;;;;;;;;;;;25.40;46.30;;;;;;5036862;28;19909;-72
2020/12/05 08:18:11;;;;;;;;;;;25.50;46.10;;;;;;5044414;28;19979;-73
2020/12/05 08:21:03;;;;;;;;;;;25.60;45.90;;;;;;5044371;28;19908;-73
2020/12/05 08:23:52;;;;;;;;;;;25.60;45.70;;;;;;5038005;28;19923;-72
2020/12/05 08:26:38;;;;;;;;;;;25.70;45.60;;;;;;5043199;28;20371;-73
2020/12/05 08:29:24;;;;;;;;;;;25.70;45.40;;;;;;5039791;28;19909;-73
2020/12/05 08:32:10;;;;;;;;;;;25.80;45.40;;;;;;5032320;28;19913;-72
2020/12/05 08:34:56;;;;;;;;;;;25.90;45.10;;;;;;5035574;28;19928;-73
2020/12/05 08:37:45;;;;;;;;;;;25.90;45.00;;;;;;5039690;28;19953;-72
2020/12/05 08:40:34;;;;;;;;;;;25.90;44.90;;;;;;5045450;28;19913;-73
2020/12/05 08:43:20;;;;;;;;;;;26.00;44.80;;;;;;5035119;28;20011;-73
2020/12/05 08:46:06;;;;;;;;;;;26.10;44.50;;;;;;5039589;28;19928;-73
2020/12/05 08:48:52;;;;;;;;;;;26.10;44.40;;;;;;5034869;28;19961;-73
2020/12/05 08:51:54;;;;;;;;;;;26.20;44.40;;;;;;5044776;28;20372;-74
2020/12/05 08:54:40;;;;;;;;;;;26.30;44.20;;;;;;5033572;28;19921;-73
2020/12/05 08:57:26;;;;;;;;;;;26.30;44.00;;;;;;5037015;28;19966;-73
2020/12/05 09:00:21;;;;;;;;;;;26.40;44.00;;;;;;5038790;28;20357;-73
2020/12/05 09:03:06;;;;;;;;;;;26.50;44.00;;;;;;5038597;28;19910;-73
2020/12/05 09:05:52;;;;;;;;;;;26.50;43.90;;;;;;5046421;28;20007;-72
2020/12/05 09:08:38;;;;;;;;;;;26.70;43.80;;;;;;5035501;28;20296;-73
2020/12/05 09:11:24;;;;;;;;;;;26.70;43.60;;;;;;5033002;28;20000;-73
2020/12/05 09:14:10;;;;;;;;;;;26.80;43.30;;;;;;5032023;28;19913;-72
2020/12/05 09:16:56;;;;;;;;;;;26.90;43.30;;;;;;5041684;28;20222;-72
2020/12/05 09:19:42;;;;;;;;;;;26.90;42.90;;;;;;5045062;28;19966;-71
2020/12/05 09:22:28;;;;;;;;;;;27.00;42.70;;;;;;5047223;28;20007;-73
2020/12/05 09:25:14;;;;;;;;;;;27.00;42.70;;;;;;5043199;28;19917;-73
2020/12/05 09:28:00;;;;;;;;;;;27.10;42.40;;;;;;5042277;28;19944;-72
2020/12/05 09:30:45;;;;;;;;;;;27.20;42.20;;;;;;5034670;28;20134;-73
2020/12/05 09:33:31;;;;;;;;;;;27.20;41.90;;;;;;5030558;28;19914;-73
2020/12/05 09:36:17;;;;;;;;;;;27.30;41.70;;;;;;5045366;28;19967;-73
2020/12/05 09:39:03;;;;;;;;;;;27.40;41.30;;;;;;5034521;28;20380;-72
2020/12/05 09:41:49;;;;;;;;;;;27.50;41.30;;;;;;5038475;28;19913;-72
2020/12/05 09:44:35;;;;;;;;;;;27.50;41.10;;;;;;5040719;28;19921;-73
2020/12/05 09:47:21;;;;;;;;;;;27.60;41.20;;;;;;5039005;28;19924;-73
2020/12/05 09:50:06;;;;;;;;;;;27.60;41.00;;;;;;5031984;28;19913;-73
2020/12/05 09:52:52;;;;;;;;;;;27.70;40.70;;;;;;5035943;28;19917;-72
2020/12/05 09:55:38;;;;;;;;;;;27.70;40.40;;;;;;5039322;28;19983;-73
2020/12/05 09:58:24;;;;;;;;;;;27.80;40.40;;;;;;5033991;28;19914;-70
2020/12/05 10:01:10;;;;;;;;;;;27.90;40.10;;;;;;5047932;28;19913;-73
2020/12/05 10:03:56;;;;;;;;;;;27.90;40.30;;;;;;5038291;28;19913;-72
2020/12/05 10:06:42;;;;;;;;;;;28.00;40.50;;;;;;5035003;28;19920;-72
2020/12/05 10:09:28;;;;;;;;;;;28.00;40.50;;;;;;5035950;28;20437;-72
2020/12/05 10:12:14;;;;;;;;;;;28.10;40.40;;;;;;5036174;28;19913;-73
2020/12/05 10:15:00;;;;;;;;;;;28.20;40.30;;;;;;5035685;28;20004;-73
2020/12/05 10:17:45;;;;;;;;;;;28.20;40.20;;;;;;5037260;28;20012;-73
2020/12/05 10:20:31;;;;;;;;;;;28.30;40.10;;;;;;5037846;28;19913;-72
2020/12/05 10:23:17;;;;;;;;;;;28.40;40.00;;;;;;5036967;28;19952;-72
2020/12/05 10:26:03;;;;;;;;;;;28.40;39.90;;;;;;5037134;28;19959;-72
2020/12/05 10:28:49;;;;;;;;;;;28.50;39.50;;;;;;5037972;28;20348;-72
2020/12/05 10:31:35;;;;;;;;;;;28.60;39.40;;;;;;5038494;28;19974;-72
2020/12/05 10:34:21;;;;;;;;;;;28.60;39.30;;;;;;5037638;28;19956;-72
2020/12/05 10:37:06;;;;;;;;;;;28.70;39.20;;;;;;5040451;28;20323;-73
2020/12/05 10:39:52;;;;;;;;;;;28.70;39.20;;;;;;5040259;28;19920;-74
2020/12/05 10:42:39;;;;;;;;;;;28.80;39.20;;;;;;5036058;28;19958;-70
2020/12/05 10:45:25;;;;;;;;;;;28.80;39.10;;;;;;5046185;28;19966;-73
2020/12/05 10:47:51;;;;;;;;;;;28.80;39.10;;;;;;5034508;28;20080;-68
2020/12/05 10:50:17;;;;;;;;;;;28.90;39.10;;;;;;5037422;28;19917;-68
2020/12/05 10:52:43;;;;;;;;;;;28.90;39.10;;;;;;5043221;28;19967;-70
2020/12/05 10:55:10;;;;;;;;;;;29.00;39.30;;;;;;5041018;28;19909;-67
2020/12/05 10:57:36;;;;;;;;;;;29.00;39.30;;;;;;5043224;28;19916;-68
2020/12/05 11:00:03;;;;;;;;;;;29.00;39.10;;;;;;5035492;28;20456;-72
2020/12/05 11:02:29;;;;;;;;;;;29.10;39.20;;;;;;5039031;28;19975;-74
2020/12/05 11:04:55;;;;;;;;;;;29.10;38.90;;;;;;5040075;28;19920;-73
2020/12/05 11:07:21;;;;;;;;;;;29.10;39.10;;;;;;5035660;28;19966;-72
2020/12/05 11:09:47;;;;;;;;;;;29.20;39.40;;;;;;5037214;28;19960;-73
2020/12/05 11:12:13;;;;;;;;;;;29.30;39.80;;;;;;5034286;28;19913;-73
2020/12/05 11:14:39;;;;;;;;;;;29.40;40.10;;;;;;5034176;28;19948;-72
2020/12/05 11:17:06;;;;;;;;;;;29.40;40.20;;;;;;5040896;28;20187;-71
2020/12/05 11:19:32;;;;;;;;;;;29.40;40.10;;;;;;5039317;28;19999;-72
2020/12/05 11:21:58;;;;;;;;;;;29.40;40.30;;;;;;5040180;28;19928;-74
2020/12/05 11:24:24;;;;;;;;;;;29.50;40.50;;;;;;5035413;28;19971;-72
2020/12/05 11:26:50;;;;;;;;;;;29.60;40.90;;;;;;5035858;28;19960;-72
2020/12/05 11:29:16;;;;;;;;;;;29.60;40.60;;;;;;5032833;28;19999;-73
2020/12/05 11:31:42;;;;;;;;;;;29.60;40.60;;;;;;5039898;28;19913;-74
2020/12/05 11:34:08;;;;;;;;;;;29.70;40.60;;;;;;5036540;28;20379;-71
2020/12/05 11:36:34;;;;;;;;;;;29.70;40.60;;;;;;5037359;28;19941;-71
2020/12/05 11:39:00;;;;;;;;;;;29.80;40.50;;;;;;5032022;28;19917;-72
2020/12/05 11:41:26;;;;;;;;;;;29.90;40.60;;;;;;5034884;28;19956;-73
2020/12/05 11:43:53;;;;;;;;;;;29.90;40.40;;;;;;5035523;28;19921;-73
2020/12/05 11:46:19;;;;;;;;;;;29.90;40.40;;;;;;5042798;28;20426;-72
2020/12/05 11:48:45;;;;;;;;;;;29.90;40.40;;;;;;5043074;28;19914;-74
2020/12/05 11:51:11;;;;;;;;;;;29.90;40.50;;;;;;5033159;28;19909;-73
2020/12/05 11:53:37;;;;;;;;;;;30.00;40.60;;;;;;5075200;28;19956;-73
2020/12/05 11:56:04;;;;;;;;;;;30.00;40.50;;;;;;5035640;28;19921;-73
2020/12/05 11:58:30;;;;;;;;;;;30.00;40.50;;;;;;5045205;28;19913;-73
2020/12/05 12:00:56;;;;;;;;;;;30.00;40.40;;;;;;5038386;28;20372;-74
2020/12/05 12:03:22;;;;;;;;;;;30.00;40.40;;;;;;5048383;28;19917;-73
2020/12/05 12:05:48;;;;;;;;;;;30.10;40.30;;;;;;5042245;28;19920;-73
2020/12/05 12:08:34;;;;;;;;;;;30.10;40.10;;;;;;5043811;28;20305;-74
2020/12/05 12:11:20;;;;;;;;;;;30.10;40.10;;;;;;5042167;28;19988;-74
2020/12/05 12:14:06;;;;;;;;;;;30.20;40.40;;;;;;5034097;28;19909;-73
2020/12/05 12:16:52;;;;;;;;;;;30.20;40.20;;;;;;5040561;28;20032;-72
2020/12/05 12:19:38;;;;;;;;;;;30.20;40.30;;;;;;5048640;28;19913;-74
2020/12/05 12:22:24;;;;;;;;;;;30.20;40.00;;;;;;5037389;28;19913;-73
2020/12/05 12:25:09;;;;;;;;;;;30.30;40.10;;;;;;5036922;28;19920;-74
2020/12/05 12:27:55;;;;;;;;;;;30.30;40.20;;;;;;5040327;28;20257;-74
2020/12/05 12:30:41;;;;;;;;;;;30.30;40.30;;;;;;5035412;28;19913;-73
2020/12/05 12:33:27;;;;;;;;;;;30.30;40.40;;;;;;5042014;28;19917;-74
2020/12/05 12:36:13;;;;;;;;;;;30.30;40.30;;;;;;5034963;28;19913;-76
2020/12/05 12:38:39;;;;;;;;;;;30.30;40.50;;;;;;5035088;28;20379;-75
2020/12/05 12:41:05;;;;;;;;;;;30.40;40.30;;;;;;5045643;28;19928;-73
2020/12/05 12:43:31;;;;;;;;;;;30.40;40.20;;;;;;5039288;28;19921;-74
2020/12/05 12:45:57;;;;;;;;;;;30.40;40.00;;;;;;5032134;28;19913;-74
2020/12/05 12:48:45;;;;;;;;;;;30.40;40.40;;;;;;5038076;28;19913;-71
2020/12/05 12:51:11;;;;;;;;;;;30.50;40.50;;;;;;5031723;28;19995;-74
2020/12/05 12:53:37;;;;;;;;;;;30.50;40.70;;;;;;5043673;28;20291;-73
2020/12/05 12:56:03;;;;;;;;;;;30.50;40.60;;;;;;5039536;28;19909;-75
2020/12/05 12:58:39;;;;;;;;;;;30.50;40.70;;;;;;5032033;28;19913;-74
2020/12/05 13:01:05;;;;;;;;;;;30.50;40.60;;;;;;5033306;28;19913;-74
2020/12/05 13:03:31;;;;;;;;;;;30.50;40.70;;;;;;5040540;28;20003;-72
2020/12/05 13:05:57;;;;;;;;;;;30.50;40.80;;;;;;5039154;28;19919;-75
2020/12/05 13:08:27;;;;;;;;;;;30.50;40.90;;;;;;5035697;28;20396;-76
2020/12/05 13:10:53;;;;;;;;;;;30.50;41.40;;;;;;5031819;28;19952;-75
2020/12/05 13:13:22;;;;;;;;;;;30.50;41.80;;;;;;5033168;28;20378;-73
2020/12/05 13:15:48;;;;;;;;;;;30.50;42.00;;;;;;5071465;28;19913;-70
2020/12/05 13:18:14;;;;;;;;;;;30.40;42.20;;;;;;5032062;28;19917;-72
2020/12/05 13:20:40;;;;;;;;;;;30.40;42.40;;;;;;5032870;28;19959;-75
2020/12/05 13:23:06;;;;;;;;;;;30.30;42.50;;;;;;5036057;28;20015;-73
2020/12/05 13:25:32;;;;;;;;;;;30.20;42.70;;;;;;5033337;28;19913;-71
2020/12/05 13:27:59;;;;;;;;;;;30.20;43.00;;;;;;5038023;28;19922;-75
2020/12/05 13:30:25;;;;;;;;;;;30.20;43.10;;;;;;5042957;28;19956;-73
2020/12/05 13:32:51;;;;;;;;;;;30.20;43.20;;;;;;5036618;28;19916;-74
2020/12/05 13:35:17;;;;;;;;;;;30.20;43.20;;;;;;5040203;28;19917;-73
2020/12/05 13:37:43;;;;;;;;;;;30.20;43.20;;;;;;5034857;28;20008;-73
2020/12/05 13:40:09;;;;;;;;;;;30.20;43.10;;;;;;5044924;28;19966;-72
2020/12/05 13:42:35;;;;;;;;;;;30.10;43.00;;;;;;5031030;28;19929;-74
2020/12/05 13:45:02;;;;;;;;;;;30.10;43.20;;;;;;5033488;28;19940;-73
2020/12/05 13:47:28;;;;;;;;;;;30.10;43.40;;;;;;5043590;28;19921;-75
2020/12/05 13:49:54;;;;;;;;;;;30.10;43.30;;;;;;5039160;28;19909;-74
2020/12/05 13:52:20;;;;;;;;;;;30.10;43.40;;;;;;5038032;28;19916;-76
2020/12/05 13:54:46;;;;;;;;;;;30.10;43.50;;;;;;5036455;28;19917;-75
2020/12/05 13:57:12;;;;;;;;;;;30.00;43.60;;;;;;5036724;28;19909;-73
2020/12/05 13:59:38;;;;;;;;;;;30.00;43.70;;;;;;5045471;28;19920;-74
2020/12/05 14:02:04;;;;;;;;;;;29.90;43.80;;;;;;5036779;28;19909;-74
2020/12/05 14:04:41;;;;;;;;;;;29.90;43.90;;;;;;5037719;28;20307;-69
2020/12/05 14:07:07;;;;;;;;;;;29.90;43.90;;;;;;5045163;28;19925;-73
2020/12/05 14:09:33;;;;;;;;;;;29.80;44.00;;;;;;5036595;28;19909;-75
2020/12/05 14:12:00;;;;;;;;;;;29.70;44.00;;;;;;5043293;28;19913;-70
2020/12/05 14:14:27;;;;;;;;;;;29.70;44.10;;;;;;5044755;28;19913;-73
2020/12/05 14:16:53;;;;;;;;;;;29.70;44.20;;;;;;5035298;28;19909;-75
2020/12/05 14:19:19;;;;;;;;;;;29.70;44.30;;;;;;5036768;28;19928;-75
2020/12/05 14:21:45;;;;;;;;;;;29.60;44.40;;;;;;5049560;28;19949;-73
2020/12/05 14:24:11;;;;;;;;;;;29.60;44.50;;;;;;5035710;28;20004;-75
2020/12/05 14:26:38;;;;;;;;;;;29.60;44.60;;;;;;5041543;28;19991;-76
2020/12/05 14:29:04;;;;;;;;;;;29.50;44.50;;;;;;5039251;28;19909;-76
2020/12/05 14:31:30;;;;;;;;;;;29.50;44.60;;;;;;5044199;28;19948;-74
2020/12/05 14:33:56;;;;;;;;;;;29.40;44.80;;;;;;5038190;28;19909;-76
2020/12/05 14:36:23;;;;;;;;;;;29.40;44.90;;;;;;5038977;28;20269;-73
2020/12/05 14:38:50;;;;;;;;;;;29.30;45.20;;;;;;5038141;28;19974;-75
2020/12/05 14:41:17;;;;;;;;;;;29.30;45.40;;;;;;5044653;28;20000;-75
2020/12/05 14:43:44;;;;;;;;;;;29.30;45.50;;;;;;5044302;28;19964;-73
2020/12/05 14:46:11;;;;;;;;;;;29.20;45.60;;;;;;5042021;28;19913;-74
2020/12/05 14:48:37;;;;;;;;;;;29.10;45.60;;;;;;5039858;28;19913;-75
2020/12/05 14:51:04;;;;;;;;;;;29.10;45.80;;;;;;5039914;28;20468;-75
2020/12/05 14:53:30;;;;;;;;;;;29.10;46.40;;;;;;5047724;28;19995;-75